KUGN/UGN METAR and TAF weather

Enter ICAO airport designator
Station Type Date Time Source
KUGN METAR 2022/08/16 17:55 UTC NOAA

KUGN 161755Z 05008KT 10SM CLR 24/10 A3013 RMK AO2 SLP195 T02440100 10250 20178 58001 $


Station Type Date Time Source
KUGN Decoded METAR 2022/08/16 17:55 UTC NOAA

CHICAGO/WAUKEGAN REGIONAL, IL, United States (KUGN) 42-25N 087-52W
Aug 16, 2022 - 01:55 PM EDT / 2022.08.16 1755 UTC
Wind: from the NE (050 degrees) at 9 MPH (8 KT):0
Visibility: 10 mile(s):0
Sky conditions: clear
Temperature: 75.9 F (24.4 C)
Dew Point: 50.0 F (10.0 C)
Relative Humidity: 40%
Pressure (altimeter): 30.13 in. Hg (1020 hPa)
Pressure tendency: 0.00 inches (0.1 hPa) lower than three hours ago
ob: KUGN 161755Z 05008KT 10SM CLR 24/10 A3013 RMK AO2 SLP195 T02440100 10250 20178 58001
cycle: 18

Station Type Date Time Source
KUGN TAF UTC NOAA

Error!

Example: see airport list